^^

METAR Reports

 

KTHV - York, Pennsylvania, USA
Distance from station: NW 5mi, 8km
Updated: Thu, 05-Aug-2021 12:53am EDT
Clear
Clear
 Wind from calm
Wind: Calm
Temperature: 57°F , 14°C
Dew Point: 54°F , 12°C
Humidity: 88%
Barometer: 30.13 inHg , 1020.3 hPa
Clouds: Clear
Visibility: 10 miles , 16 km
2021/08/05 04:53 KTHV 050453Z AUTO 00000KT 10SM CLR 14/12 A3013 RMK AO2 SLP202 T01390122 402720133
KMDT - Middletown, Pennsylvania, USA
Distance from station: NNW 20mi, 32km
Updated: Thu, 05-Aug-2021 12:56am EDT
Clear
Clear
 Wind from calm
Wind: Calm
Temperature: 66°F , 19°C
Dew Point: 57°F , 14°C
Humidity: 73%
Barometer: 30.11 inHg , 1019.6 hPa
Clouds: Clear
Visibility: 10 miles , 16 km
2021/08/05 04:56 KMDT 050456Z 00000KT 10SM CLR 19/14 A3011 RMK AO2 SLP197 T01890144 402780167
 
KLNS - Lancaster, Pennsylvania, USA
Distance from station: N 34mi, 55km
Updated: Thu, 05-Aug-2021 12:53am EDT
Clear
Clear
 Wind from calm
Wind: Calm
Temperature: 63°F , 17°C
Dew Point: 57°F , 14°C
Humidity: 83%
Barometer: 30.12 inHg , 1020 hPa
Clouds: Clear
Visibility: 10 miles , 16 km
2021/08/05 04:53 KLNS 050453Z AUTO 00000KT 10SM CLR 17/14 A3012 RMK AO2 SLP199 T01720139 402830150
KBWI - Baltrimore - Washington, Maryland, USA
Distance from station: S 52mi, 84km
Updated: Thu, 05-Aug-2021 12:54am EDT
Clear
Clear
 Wind from calm
Wind: Calm
Temperature: 64°F , 18°C
Dew Point: 59°F , 15°C
Humidity: 83%
Barometer: 30.11 inHg , 1019.6 hPa
Clouds: Clear
Visibility: 10 miles , 16 km
2021/08/05 04:54 KBWI 050454Z 00000KT 10SM CLR 18/15 A3011 RMK AO2 SLP194 T01780150 402720178
 
KMQS - Coatesville, Pennsylvania, USA
Distance from station: NE 54mi, 86km
Updated: Thu, 05-Aug-2021 1:15am EDT
Clear
Clear
 Wind from W
Wind: W 5 mph , 7 km/h
Temperature: 59°F , 15°C
Dew Point: 57°F , 14°C
Humidity: 94%
Barometer: 30.14 inHg , 1020.7 hPa
Clouds: Clear
Visibility: 10 miles , 16 km
2021/08/05 05:15 KMQS 050515Z AUTO 28004KT 10SM CLR 15/14 A3014 RMK AO2
KGAI - Gaithersburg, Maryland, USA
Distance from station: SW 54mi, 86km
Updated: Thu, 05-Aug-2021 12:56am EDT
Clear
Clear
 Wind from calm
Wind: Calm
Temperature: 61°F , 16°C
Dew Point: 57°F , 14°C
Humidity: 88%
Barometer: 30.14 inHg , 1020.7 hPa
Clouds: Clear
Visibility: 10 miles , 16 km
2021/08/05 04:56 KGAI 050456Z AUTO 00000KT 10SM CLR 16/14 A3014 RMK AO2 SLP216 T01610144 402720161 PNO $
 
KFME - Fort Meade, Maryland, USA
Distance from station: SSW 58mi, 93km
Updated: Thu, 05-Aug-2021 12:55am EDT
Clear
Clear
 Wind from calm
Wind: Calm
Temperature: 59°F , 15°C
Dew Point: 59°F , 15°C
Humidity: 100%
Barometer: 30.14 inHg , 1020.7 hPa
Clouds: Clear
Visibility: 10 miles , 16 km
2021/08/05 04:55 KFME 050455Z AUTO 00000KT 10SM CLR 15/15 A3014 RMK AO1
KCGS - College Park, Maryland, USA
Distance from station: SW 65mi, 104km
Updated: Thu, 05-Aug-2021 12:55am EDT
Clear
Clear
 Wind from calm
Wind: Calm
Temperature: 61°F , 16°C
Dew Point: 59°F , 15°C
Humidity: 94%
Barometer: 30.11 inHg , 1019.6 hPa
Clouds: Clear
Visibility: 10 miles , 16 km
2021/08/05 04:55 KCGS 050455Z AUTO 00000KT 10SM CLR 16/15 A3011 RMK AO1 T01610150 402650161
 
KILG - Wilmington, Delaware, USA
Distance from station: E 69mi, 111km
Updated: Thu, 05-Aug-2021 12:51am EDT
Clear
Clear
 Wind from NNW
Wind: NNW 3 mph , 6 km/h
Temperature: 64°F , 18°C
Dew Point: 61°F , 16°C
Humidity: 88%
Barometer: 30.11 inHg , 1019.6 hPa
Clouds: Clear
Visibility: 10 miles , 16 km
2021/08/05 04:51 KILG 050451Z 33003KT 10SM CLR 18/16 A3011 RMK AO2 SLP197 T01780156 402610161
KW29 - Stevensville, Maryland, USA
Distance from station: S 71mi, 114km
Updated: Sun, 28-Mar-2021 8:55am EDT
NOT Current
Nearby thunderstorm, Rain, Mist, Overcast
Nearby thunderstorm, Rain, Mist, Overcast
 Wind from ESE
Wind: ESE 6 mph , 9 km/h
Temperature: 57°F , 14°C
Barometer: 29.84 inHg , 1010.5 hPa
Summary: Nearby thunderstorm, Rain, Mist
Clouds: Overcast
Visibility: 2 miles , 3 km
Cloud details: Overcast 300 ft
2021/03/28 12:55 KW29 281255Z AUTO 12005KT 2SM VCTSRA BR OVC003 14/ A2984 RMK AO2 LTG DSNT S AND W
 
KAGC - Pittsburgh (Allegheny County), Pennsylvania, USA
Distance from station: W 164mi, 265km
Updated: Thu, 05-Aug-2021 12:53am EDT
Few Clouds
Few Clouds
 Wind from calm
Wind: Calm
Temperature: 66°F , 19°C
Dew Point: 61°F , 16°C
Humidity: 83%
Barometer: 30.13 inHg , 1020.3 hPa
Clouds: Few Clouds
Visibility: 9 miles , 14 km
Cloud details: Few Clouds 6000 ft
2021/08/05 04:53 KAGC 050453Z 00000KT 9SM FEW060 19/16 A3013 RMK AO2 SLP198 T01940161 402780161 $
KPIT - Pittsburgh, Pennsylvania, USA
Distance from station: W 182mi, 293km
Updated: Thu, 05-Aug-2021 12:51am EDT
Mostly cloudy
Mostly cloudy
 Wind from calm
Wind: Calm
Temperature: 64°F , 18°C
Dew Point: 64°F , 18°C
Humidity: 100%
Barometer: 30.13 inHg , 1020.3 hPa
Clouds: Mostly cloudy
Visibility: 10 miles , 16 km
Cloud details: Mostly cloudy 10000 ft
Mostly cloudy 25000 ft
2021/08/05 04:51 KPIT 050451Z 00000KT 10SM BKN100 BKN250 18/18 A3013 RMK AO2 SLP204 T01830178 402780156
 
KFFO - Wright Patterson AFB, Ohio, USA
Distance from station: W 381mi, 613km
Updated: Thu, 05-Aug-2021 12:56am EDT
Overcast
Overcast
 Wind from calm
Wind: Calm
Temperature: 66°F , 19°C
Dew Point: 57°F , 14°C
Humidity: 73%
Barometer: 30.13 inHg , 1020.3 hPa
Clouds: Overcast
Visibility: 10 miles , 16 km
Cloud details: Few Clouds 8000 ft
Overcast 10000 ft
2021/08/05 04:56 KFFO 050456Z AUTO 00000KT 10SM FEW080 OVC100 19/14 A3013 RMK AO2 SLP201 T01870140 402780135
KDAY - Dayton, Ohio, USA
Distance from station: W 390mi, 628km
Updated: Thu, 05-Aug-2021 12:56am EDT
Mostly cloudy
Mostly cloudy
 Wind from NE
Wind: NE 5 mph , 7 km/h
Temperature: 68°F , 20°C
Dew Point: 54°F , 12°C
Humidity: 60%
Barometer: 30.15 inHg , 1021 hPa
Clouds: Mostly cloudy
Visibility: 10 miles , 16 km
Cloud details: Partly cloudy 7000 ft
Mostly cloudy 9000 ft
2021/08/05 04:56 KDAY 050456Z 05004KT 10SM SCT070 BKN090 20/12 A3015 RMK AO2 SLP202 T02000122 402830133
 
KATL - Hartsfield Atlanta, Georgia, USA
Distance from station: S 602mi, 969km
Updated: Thu, 05-Aug-2021 12:52am EDT
Few Clouds
Few Clouds
 Wind from E
Wind: E 7 mph , 11 km/h
Temperature: 72°F , 22°C
Dew Point: 64°F , 18°C
Humidity: 78%
Barometer: 30.09 inHg , 1019 hPa
Clouds: Few Clouds
Visibility: 10 miles , 16 km
Cloud details: Few Clouds 10000 ft
2021/08/05 04:52 KATL 050452Z 09006KT 10SM FEW100 22/18 A3009 RMK AO2 SLP180 T02220183 402940211
KBHM - Birmingham, Alabama, USA
Distance from station: SSW 701mi, 1,128km
Updated: Thu, 05-Aug-2021 12:53am EDT
Partly cloudy
Partly cloudy
 Wind from E
Wind: E 3 mph , 6 km/h
Temperature: 75°F , 24°C
Dew Point: 66°F , 19°C
Humidity: 74%
Barometer: 30.07 inHg , 1018.3 hPa
Clouds: Partly cloudy
Visibility: 10 miles , 16 km
Cloud details: Few Clouds 8000 ft
Partly cloudy 9500 ft
2021/08/05 04:53 KBHM 050453Z 08003KT 10SM FEW080 SCT095 24/19 A3007 RMK AO2 SLP174 T02390189